Rio Chiquito, New Mexico
Current Conditions -  °F | °C
As of 3:35 PM on Sunday 21 Dec 2014 (Local Time) from KSKX Reporting Station
Clear Clear  
Wind Chill: 31°   Ceiling: Unl
Heat Index: 39°   Visibility: 10mi
Dew Point: 25°   Wind: 15mph
Humidity: 56%   Direction: 210°SSW
Pressure: 29.88"   Gusts: NA
Location:  36.0272°N, 105.768°W
Report Text: KSKX 212235Z AUTO 21013KT 10SM CLR 04/M04 A2988 RMK AO1
Loading
Personal Weather Stations






























Interactive Weather Map New forecast layout! Learn more

10-Day Weather Forecast

Advertisements
Track Severe Weather on mobile